createdAt,value
2018-05-02T00:01:46.640Z,51.40
2018-05-02T00:04:15.081Z,51.60
2018-05-02T00:06:42.642Z,51.60
2018-05-02T00:09:10.236Z,51.60
2018-05-02T00:11:37.823Z,51.60
2018-05-02T00:14:05.431Z,51.60
2018-05-02T00:16:32.980Z,51.70
2018-05-02T00:19:00.915Z,51.50
2018-05-02T00:21:28.474Z,51.70
2018-05-02T00:23:56.034Z,51.70
2018-05-02T00:26:23.952Z,51.60
2018-05-02T00:28:51.982Z,51.60
2018-05-02T00:31:19.528Z,51.90
2018-05-02T00:33:47.087Z,51.80
2018-05-02T00:36:14.754Z,51.80
2018-05-02T00:38:43.129Z,51.70
2018-05-02T00:41:11.893Z,51.60
2018-05-02T00:43:40.247Z,51.80
2018-05-02T00:46:07.846Z,52.30
2018-05-02T00:48:36.225Z,52.00
2018-05-02T00:51:04.552Z,52.30
2018-05-02T00:53:32.139Z,52.30
2018-05-02T00:56:00.498Z,52.20
2018-05-02T00:58:28.079Z,52.10
2018-05-02T01:00:55.829Z,52.10
2018-05-02T01:03:23.438Z,52.20
2018-05-02T01:05:51.295Z,52.30
2018-05-02T01:08:19.634Z,52.40
2018-05-02T01:10:47.297Z,52.40
2018-05-02T01:13:14.914Z,52.40
2018-05-02T01:15:42.531Z,52.80
2018-05-02T01:18:10.177Z,52.20
2018-05-02T01:20:37.790Z,52.20
2018-05-02T01:23:06.129Z,52.60
2018-05-02T01:25:33.710Z,52.50
2018-05-02T01:28:02.071Z,52.60
2018-05-02T01:30:29.629Z,52.60
2018-05-02T01:32:57.239Z,52.60
2018-05-02T01:35:24.798Z,52.40
2018-05-02T01:37:52.347Z,51.70
2018-05-02T01:40:20.026Z,51.80
2018-05-02T01:42:47.572Z,51.60
2018-05-02T01:45:15.990Z,51.70
2018-05-02T01:47:45.136Z,51.40
2018-05-02T01:50:13.067Z,51.40
2018-05-02T01:52:40.638Z,51.30
2018-05-02T01:55:08.246Z,51.20
2018-05-02T01:57:35.824Z,51.00
2018-05-02T02:00:03.457Z,51.10
2018-05-02T02:02:31.140Z,51.10
2018-05-02T02:04:58.745Z,51.00
2018-05-02T02:07:26.404Z,50.90
2018-05-02T02:09:54.032Z,51.10
2018-05-02T02:12:21.606Z,51.10
2018-05-02T02:14:49.174Z,51.20
2018-05-02T02:17:16.780Z,51.20
2018-05-02T02:19:45.124Z,51.10
2018-05-02T02:22:13.422Z,51.00
2018-05-02T02:24:41.805Z,51.00
2018-05-02T02:27:10.135Z,51.00
2018-05-02T02:29:37.681Z,51.00
2018-05-02T02:32:05.277Z,50.90
2018-05-02T02:34:32.867Z,50.80
2018-05-02T02:37:01.220Z,50.80
2018-05-02T02:39:29.562Z,51.10
2018-05-02T02:41:57.254Z,50.80
2018-05-02T02:44:24.851Z,50.80
2018-05-02T02:46:52.401Z,50.70
2018-05-02T02:49:20.048Z,51.00
2018-05-02T02:51:48.406Z,51.10
2018-05-02T02:54:16.001Z,51.20
2018-05-02T02:56:44.322Z,50.80
2018-05-02T02:59:12.211Z,50.80
2018-05-02T03:01:39.812Z,51.10
2018-05-02T03:04:07.348Z,51.20
2018-05-02T03:06:35.712Z,51.00
2018-05-02T03:09:03.345Z,51.00
2018-05-02T03:11:30.921Z,50.70
2018-05-02T03:13:58.533Z,50.80
2018-05-02T03:16:26.858Z,50.80
2018-05-02T03:18:54.432Z,50.80
2018-05-02T03:21:22.003Z,50.70
2018-05-02T03:23:50.362Z,50.90
2018-05-02T03:26:17.932Z,51.00
2018-05-02T03:28:45.558Z,50.70
2018-05-02T03:31:13.142Z,50.60
2018-05-02T03:33:40.768Z,50.60
2018-05-02T03:36:08.335Z,50.80
2018-05-02T03:38:35.951Z,51.60
2018-05-02T03:41:03.535Z,51.30
2018-05-02T03:43:31.917Z,51.90
2018-05-02T03:46:00.296Z,52.10
2018-05-02T03:48:28.660Z,52.10
2018-05-02T03:50:56.221Z,52.00
2018-05-02T03:53:24.551Z,52.10
2018-05-02T03:55:52.109Z,52.10
2018-05-02T03:58:19.687Z,52.00
2018-05-02T04:00:59.302Z,52.10
2018-05-02T04:03:38.928Z,52.40
2018-05-02T04:09:11.562Z,52.60
2018-05-02T04:11:39.207Z,52.50
2018-05-02T04:14:07.154Z,52.40
2018-05-02T04:16:34.745Z,52.60
2018-05-02T04:19:02.423Z,52.60
2018-05-02T04:21:30.077Z,52.70
2018-05-02T04:23:57.753Z,51.80
2018-05-02T04:26:25.341Z,51.70
2018-05-02T04:28:53.702Z,51.50
2018-05-02T04:31:22.113Z,52.00
2018-05-02T04:33:50.124Z,52.00
2018-05-02T04:36:17.687Z,51.90
2018-05-02T04:38:45.262Z,51.90
2018-05-02T04:41:12.862Z,51.80
2018-05-02T04:43:41.392Z,51.60
2018-05-02T04:46:09.090Z,51.60
2018-05-02T04:48:36.751Z,50.90
2018-05-02T04:51:05.191Z,50.70
2018-05-02T04:53:32.750Z,50.80
2018-05-02T04:56:00.462Z,50.90
2018-05-02T04:58:28.816Z,50.50
2018-05-02T05:00:56.514Z,50.50
2018-05-02T05:03:25.032Z,51.30
2018-05-02T05:05:52.722Z,51.30
2018-05-02T05:08:20.424Z,51.10
2018-05-02T05:10:49.163Z,51.30
2018-05-02T05:13:18.714Z,50.70
2018-05-02T05:15:46.304Z,50.80
2018-05-02T05:18:14.165Z,51.30
2018-05-02T05:20:41.905Z,51.40
2018-05-02T05:23:10.281Z,50.40
2018-05-02T05:25:37.912Z,50.40
2018-05-02T05:28:05.593Z,50.40
2018-05-02T05:30:33.990Z,50.20
2018-05-02T05:33:02.401Z,50.30
2018-05-02T05:35:30.003Z,50.30
2018-05-02T05:37:58.354Z,49.60
2018-05-02T05:40:25.922Z,49.60
2018-05-02T05:42:53.665Z,50.40
2018-05-02T05:45:21.347Z,50.40
2018-05-02T05:47:49.246Z,49.80
2018-05-02T05:50:19.380Z,49.80
2018-05-02T05:52:47.722Z,49.60
2018-05-02T05:55:15.719Z,49.50
2018-05-02T05:57:44.312Z,49.70
2018-05-02T06:00:12.122Z,49.70
2018-05-02T06:02:40.937Z,49.90
2018-05-02T06:05:08.690Z,49.90
2018-05-02T06:07:36.270Z,49.50
2018-05-02T06:10:03.866Z,49.70
2018-05-02T06:12:32.391Z,49.10
2018-05-02T06:14:59.955Z,49.10
2018-05-02T06:17:27.619Z,49.00
2018-05-02T06:19:55.640Z,49.70
2018-05-02T06:22:23.605Z,48.90
2018-05-02T06:24:52.015Z,48.80
2018-05-02T06:27:19.754Z,48.80
2018-05-02T06:29:47.358Z,48.50
2018-05-02T06:32:15.367Z,48.40
2018-05-02T06:34:44.134Z,48.10
2018-05-02T06:37:12.743Z,48.20
2018-05-02T06:39:42.627Z,48.70
2018-05-02T06:42:10.367Z,47.70
2018-05-02T06:44:38.049Z,48.50
2018-05-02T06:47:05.714Z,48.90
2018-05-02T06:49:33.627Z,47.50
2018-05-02T06:52:01.216Z,46.20
2018-05-02T06:54:28.873Z,44.70
2018-05-02T06:56:56.449Z,45.50
2018-05-02T06:59:24.234Z,45.30
2018-05-02T07:01:51.993Z,45.00
2018-05-02T07:04:19.660Z,44.40
2018-05-02T07:06:47.423Z,44.40
2018-05-02T07:09:16.614Z,45.40
2018-05-02T07:11:45.332Z,46.50
2018-05-02T07:14:12.913Z,46.60
2018-05-02T07:16:40.709Z,47.50
2018-05-02T07:19:08.409Z,47.40
2018-05-02T07:21:36.093Z,47.90
2018-05-02T07:24:04.797Z,48.40
2018-05-02T07:26:32.387Z,48.50
2018-05-02T07:28:59.923Z,48.00
2018-05-02T07:31:27.542Z,48.30
2018-05-02T07:33:55.303Z,47.50
2018-05-02T07:36:23.033Z,47.40
2018-05-02T07:38:50.635Z,47.30
2018-05-02T07:41:18.275Z,47.40
2018-05-02T07:43:45.941Z,47.10
2018-05-02T07:46:14.341Z,47.30
2018-05-02T07:48:42.020Z,47.90
2018-05-02T07:51:10.343Z,49.00
2018-05-02T07:53:38.243Z,49.00
2018-05-02T07:56:05.924Z,49.60
2018-05-02T07:58:34.270Z,49.80
2018-05-02T08:01:02.119Z,49.80
2018-05-02T08:03:30.140Z,50.50
2018-05-02T08:05:57.988Z,50.50
2018-05-02T08:08:25.562Z,51.00
2018-05-02T08:10:57.404Z,50.80
2018-05-02T08:13:25.078Z,50.70
2018-05-02T08:15:54.786Z,51.60
2018-05-02T08:18:22.347Z,51.60
2018-05-02T08:20:50.284Z,51.60
2018-05-02T08:23:17.947Z,51.30
2018-05-02T08:25:45.735Z,52.40
2018-05-02T08:28:13.492Z,54.20
2018-05-02T08:30:41.205Z,55.20
2018-05-02T08:33:09.573Z,56.30
2018-05-02T08:35:37.178Z,56.30
2018-05-02T08:38:05.072Z,58.70
2018-05-02T08:40:32.824Z,55.10
2018-05-02T08:43:00.585Z,55.00
2018-05-02T08:45:28.463Z,54.30
2018-05-02T08:47:56.132Z,54.40
2018-05-02T08:50:23.835Z,52.70
2018-05-02T08:52:52.306Z,51.70
2018-05-02T08:55:20.234Z,51.60
2018-05-02T08:57:47.827Z,50.30
2018-05-02T09:00:15.592Z,49.90
2018-05-02T09:02:43.304Z,49.60
2018-05-02T09:05:10.877Z,48.90
2018-05-02T09:07:38.580Z,48.20
2018-05-02T09:10:06.239Z,49.00
2018-05-02T09:12:33.935Z,48.90
2018-05-02T09:15:01.638Z,49.00
2018-05-02T09:17:29.217Z,48.80
2018-05-02T09:19:56.819Z,49.30
2018-05-02T09:22:25.510Z,48.30
2018-05-02T09:24:53.144Z,48.40
2018-05-02T09:27:20.744Z,48.50
2018-05-02T09:29:49.095Z,46.50
2018-05-02T09:32:16.793Z,46.50
2018-05-02T09:34:45.192Z,44.20
2018-05-02T09:37:13.586Z,43.20
2018-05-02T09:39:41.253Z,43.20
2018-05-02T09:42:08.844Z,42.20
2018-05-02T09:44:38.213Z,41.30
2018-05-02T09:47:05.983Z,41.20
2018-05-02T09:49:33.626Z,41.10
2018-05-02T09:52:02.071Z,42.80
2018-05-02T09:54:29.641Z,42.70
2018-05-02T09:56:57.285Z,44.00
2018-05-02T09:59:25.118Z,44.60
2018-05-02T10:01:52.982Z,44.30
2018-05-02T10:04:20.656Z,42.50
2018-05-02T10:06:48.382Z,42.00
2018-05-02T10:12:09.238Z,41.50
2018-05-02T10:14:36.893Z,41.50
2018-05-02T10:17:04.562Z,42.60
2018-05-02T10:19:32.232Z,43.10
2018-05-02T10:22:00.291Z,43.90
2018-05-02T10:24:28.172Z,44.50
2018-05-02T10:26:55.813Z,44.30
2018-05-02T10:29:23.403Z,45.00
2018-05-02T10:31:51.035Z,45.20
2018-05-02T10:34:19.262Z,45.40
2018-05-02T10:36:46.907Z,45.40
2018-05-02T10:39:14.806Z,45.50
2018-05-02T10:41:42.663Z,46.10
2018-05-02T10:44:10.280Z,46.40
2018-05-02T10:46:37.894Z,46.60
2018-05-02T10:49:05.491Z,47.00
2018-05-02T10:51:33.067Z,47.60
2018-05-02T10:54:00.675Z,47.40
2018-05-02T10:56:28.280Z,48.00
2018-05-02T10:58:55.869Z,48.20
2018-05-02T11:01:23.525Z,48.10
2018-05-02T11:03:51.311Z,47.90
2018-05-02T11:06:19.165Z,47.50
2018-05-02T11:08:46.810Z,47.50
2018-05-02T11:11:15.269Z,47.60
2018-05-02T11:13:42.962Z,47.10
2018-05-02T11:16:10.833Z,47.20
2018-05-02T11:18:38.468Z,47.30
2018-05-02T11:21:06.039Z,46.90
2018-05-02T11:23:33.704Z,47.40
2018-05-02T11:26:01.368Z,47.60
2018-05-02T11:28:29.116Z,46.80
2018-05-02T11:30:56.732Z,46.80
2018-05-02T11:33:24.432Z,47.70
2018-05-02T11:35:52.104Z,48.20
2018-05-02T11:38:19.715Z,47.00
2018-05-02T11:40:48.080Z,46.20
2018-05-02T11:43:16.495Z,46.00
2018-05-02T11:45:44.103Z,45.90
2018-05-02T11:48:11.688Z,46.60
2018-05-02T11:50:39.747Z,46.70
2018-05-02T11:53:07.502Z,46.80
2018-05-02T11:55:35.156Z,46.10
2018-05-02T11:58:02.827Z,45.50
2018-05-02T12:00:30.495Z,45.40
2018-05-02T12:02:58.271Z,45.30
2018-05-02T12:05:26.766Z,44.10
2018-05-02T12:07:56.670Z,44.30
2018-05-02T12:10:25.601Z,44.10
2018-05-02T12:12:53.971Z,43.80
2018-05-02T12:15:21.708Z,43.80
2018-05-02T12:17:50.159Z,43.20
2018-05-02T12:20:18.393Z,43.20
2018-05-02T12:22:46.012Z,43.90
2018-05-02T12:25:13.656Z,44.40
2018-05-02T12:27:41.407Z,44.40
2018-05-02T12:30:09.961Z,44.90
2018-05-02T12:32:39.462Z,45.40
2018-05-02T12:35:08.174Z,45.90
2018-05-02T12:37:36.693Z,46.10
2018-05-02T12:40:04.698Z,46.10
2018-05-02T12:42:33.196Z,46.10
2018-05-02T12:45:00.812Z,46.10
2018-05-02T12:47:28.522Z,45.60
2018-05-02T12:49:57.049Z,45.70
2018-05-02T12:52:24.845Z,45.60
2018-05-02T12:54:53.285Z,45.00
2018-05-02T12:57:20.993Z,44.90
2018-05-02T12:59:48.587Z,44.20
2018-05-02T13:02:20.111Z,43.80
2018-05-02T13:04:47.727Z,43.60
2018-05-02T13:07:15.350Z,42.90
2018-05-02T13:09:42.992Z,43.70
2018-05-02T13:12:11.450Z,43.10
2018-05-02T13:14:39.319Z,43.10
2018-05-02T13:17:06.994Z,42.80
2018-05-02T13:19:35.467Z,43.10
2018-05-02T13:22:03.160Z,43.00
2018-05-02T13:24:32.403Z,43.00
2018-05-02T13:27:00.069Z,42.90
2018-05-02T13:29:27.766Z,42.90
2018-05-02T13:31:55.412Z,43.00
2018-05-02T13:34:23.065Z,43.40
2018-05-02T13:36:50.751Z,43.00
2018-05-02T13:39:18.369Z,42.90
2018-05-02T13:41:47.004Z,42.40
2018-05-02T13:44:14.616Z,42.40
2018-05-02T13:46:42.319Z,42.70
2018-05-02T13:49:10.242Z,43.10
2018-05-02T13:51:38.609Z,42.70
2018-05-02T13:54:06.445Z,42.60
2018-05-02T13:56:34.800Z,42.70
2018-05-02T13:59:02.579Z,42.70
2018-05-02T14:01:31.253Z,42.40
2018-05-02T14:03:59.011Z,42.60
2018-05-02T14:06:26.938Z,42.50
2018-05-02T14:08:54.657Z,42.60
2018-05-02T14:11:22.359Z,42.10
2018-05-02T14:13:51.323Z,42.20
2018-05-02T14:16:18.903Z,42.30
2018-05-02T14:18:46.475Z,42.40
2018-05-02T14:21:14.195Z,42.90
2018-05-02T14:23:41.954Z,43.10
2018-05-02T14:26:09.628Z,42.90
2018-05-02T14:28:37.269Z,43.10
2018-05-02T14:31:04.821Z,43.00
2018-05-02T14:33:32.402Z,42.60
2018-05-02T14:36:00.279Z,42.40
2018-05-02T14:38:28.128Z,43.00
2018-05-02T14:40:56.535Z,46.00
2018-05-02T14:43:24.160Z,46.00
2018-05-02T14:45:51.854Z,46.20
2018-05-02T14:48:19.597Z,46.20
2018-05-02T14:50:47.173Z,46.30
2018-05-02T14:53:14.769Z,46.20
2018-05-02T14:55:42.639Z,46.10
2018-05-02T14:58:11.200Z,46.20
2018-05-02T15:00:39.585Z,46.50
2018-05-02T15:03:07.265Z,46.40
2018-05-02T15:05:35.040Z,46.10
2018-05-02T15:08:03.209Z,46.30
2018-05-02T15:10:31.681Z,46.10
2018-05-02T15:12:59.405Z,46.10
2018-05-02T15:15:28.231Z,46.20
2018-05-02T15:17:56.585Z,46.00
2018-05-02T15:20:25.258Z,45.90
2018-05-02T15:22:52.903Z,45.80
2018-05-02T15:25:20.991Z,45.60
2018-05-02T15:27:49.114Z,45.70
2018-05-02T15:30:17.165Z,45.90
2018-05-02T15:32:45.592Z,46.20
2018-05-02T15:35:13.484Z,46.20
2018-05-02T15:37:42.077Z,46.50
2018-05-02T15:40:09.709Z,46.50
2018-05-02T15:42:37.334Z,46.50
2018-05-02T15:45:05.062Z,45.90
2018-05-02T15:47:33.803Z,46.10
2018-05-02T15:50:01.529Z,46.20
2018-05-02T15:52:29.947Z,46.20
2018-05-02T15:54:57.608Z,46.20
2018-05-02T15:57:25.309Z,46.30
2018-05-02T15:59:52.989Z,46.40
2018-05-02T16:02:30.317Z,46.50
2018-05-02T16:05:01.748Z,46.30
2018-05-02T16:07:31.121Z,46.30
2018-05-02T16:09:58.799Z,46.30
2018-05-02T16:12:31.274Z,46.50
2018-05-02T16:15:02.839Z,46.20
2018-05-02T16:17:31.413Z,46.60
2018-05-02T16:20:01.430Z,46.90
2018-05-02T16:22:29.851Z,46.80
2018-05-02T16:24:57.481Z,46.80
2018-05-02T16:27:25.175Z,46.50
2018-05-02T16:29:53.349Z,46.70
2018-05-02T16:32:21.070Z,46.70
2018-05-02T16:34:51.066Z,46.10
2018-05-02T16:37:18.774Z,46.40
2018-05-02T16:39:46.418Z,46.40
2018-05-02T16:42:14.777Z,46.30
2018-05-02T16:44:43.111Z,45.90
2018-05-02T16:47:11.109Z,45.90
2018-05-02T16:49:38.948Z,46.10
2018-05-02T16:52:06.557Z,46.90
2018-05-02T16:54:35.202Z,46.90
2018-05-02T16:57:02.754Z,46.90
2018-05-02T16:59:30.448Z,47.00
2018-05-02T17:01:58.091Z,47.20
2018-05-02T17:04:25.717Z,47.10
2018-05-02T17:06:53.343Z,47.00
2018-05-02T17:09:21.037Z,47.00
2018-05-02T17:11:48.755Z,46.50
2018-05-02T17:14:17.350Z,46.60
2018-05-02T17:16:45.028Z,46.60
2018-05-02T17:19:13.501Z,47.50
2018-05-02T17:21:41.160Z,47.50
2018-05-02T17:24:09.136Z,47.70
2018-05-02T17:26:37.535Z,48.00
2018-05-02T17:29:05.150Z,47.90
2018-05-02T17:31:32.792Z,48.10
2018-05-02T17:34:06.195Z,47.50
2018-05-02T17:36:33.739Z,47.60
2018-05-02T17:39:01.421Z,48.00
2018-05-02T17:41:29.046Z,48.00
2018-05-02T17:43:56.666Z,48.10
2018-05-02T17:46:24.353Z,48.10
2018-05-02T17:48:52.732Z,48.00
2018-05-02T17:51:20.469Z,47.90
2018-05-02T17:53:48.135Z,47.90
2018-05-02T17:56:15.801Z,48.10
2018-05-02T17:58:44.156Z,48.50
2018-05-02T18:01:11.985Z,48.40
2018-05-02T18:03:39.696Z,48.50
2018-05-02T18:06:07.291Z,48.60
2018-05-02T18:08:35.937Z,48.80
2018-05-02T18:11:03.594Z,48.80
2018-05-02T18:13:31.449Z,49.50
2018-05-02T18:15:59.124Z,48.90
2018-05-02T18:18:26.796Z,49.20
2018-05-02T18:20:54.417Z,49.50
2018-05-02T18:23:23.242Z,49.70
2018-05-02T18:25:50.872Z,49.80
2018-05-02T18:28:18.592Z,49.80
2018-05-02T18:30:46.335Z,49.90
2018-05-02T18:33:13.976Z,50.20
2018-05-02T18:35:41.568Z,50.30
2018-05-02T18:38:09.211Z,50.40
2018-05-02T18:40:36.886Z,50.20
2018-05-02T18:43:04.549Z,50.30
2018-05-02T18:45:32.205Z,50.40
2018-05-02T18:47:59.752Z,50.50
2018-05-02T18:50:27.409Z,50.70
2018-05-02T18:52:55.308Z,50.90
2018-05-02T18:55:22.882Z,50.90
2018-05-02T18:57:51.421Z,51.30
2018-05-02T19:00:19.109Z,51.50
2018-05-02T19:02:46.682Z,51.40
2018-05-02T19:05:14.328Z,51.80
2018-05-02T19:07:42.197Z,51.90
2018-05-02T19:10:10.048Z,52.00
2018-05-02T19:12:37.706Z,52.00
2018-05-02T19:15:05.780Z,52.20
2018-05-02T19:17:33.420Z,52.30
2018-05-02T19:20:06.731Z,52.30
2018-05-02T19:22:34.318Z,52.60
2018-05-02T19:25:07.495Z,52.50
2018-05-02T19:27:35.177Z,52.60
2018-05-02T19:30:02.831Z,52.60
2018-05-02T19:32:36.030Z,52.70
2018-05-02T19:35:03.941Z,52.60
2018-05-02T19:37:31.709Z,52.80
2018-05-02T19:40:04.959Z,52.70
2018-05-02T19:42:38.283Z,53.00
2018-05-02T19:45:06.470Z,53.30
2018-05-02T19:47:34.057Z,53.40
2018-05-02T19:50:01.741Z,53.50
2018-05-02T19:52:34.965Z,54.10
2018-05-02T19:55:03.281Z,53.90
2018-05-02T19:57:30.997Z,53.90
2018-05-02T19:59:58.709Z,54.00
2018-05-02T20:02:31.813Z,53.90
2018-05-02T20:04:59.426Z,54.20
2018-05-02T20:07:32.759Z,54.30
2018-05-02T20:10:05.986Z,54.30
2018-05-02T20:12:39.378Z,54.50
2018-05-02T20:15:06.985Z,54.60
2018-05-02T20:17:34.583Z,54.70
2018-05-02T20:20:02.286Z,54.80
2018-05-02T20:22:30.643Z,54.50
2018-05-02T20:24:58.241Z,54.50
2018-05-02T20:27:25.828Z,54.60
2018-05-02T20:29:53.508Z,54.40
2018-05-02T20:32:21.126Z,54.50
2018-05-02T20:34:48.721Z,54.20
2018-05-02T20:37:16.349Z,54.20
2018-05-02T20:39:43.932Z,54.30
2018-05-02T20:42:11.691Z,54.10
2018-05-02T20:44:39.303Z,53.90
2018-05-02T20:47:06.922Z,53.90
2018-05-02T20:49:34.478Z,53.90
2018-05-02T20:52:02.161Z,54.40
2018-05-02T20:54:29.850Z,54.00
2018-05-02T20:56:57.391Z,54.00
2018-05-02T20:59:25.105Z,53.80
2018-05-02T21:01:52.697Z,53.90
2018-05-02T21:04:20.403Z,53.80
2018-05-02T21:06:47.982Z,53.90
2018-05-02T21:09:15.715Z,53.90
2018-05-02T21:11:43.273Z,53.80
2018-05-02T21:14:10.940Z,53.90
2018-05-02T21:16:38.579Z,54.00
2018-05-02T21:19:06.182Z,54.00
2018-05-02T21:21:33.775Z,54.20
2018-05-02T21:24:01.349Z,54.20
2018-05-02T21:26:28.971Z,54.20
2018-05-02T21:28:56.561Z,54.40
2018-05-02T21:31:24.276Z,54.40
2018-05-02T21:33:51.912Z,54.50
2018-05-02T21:36:19.591Z,54.70
2018-05-02T21:38:47.244Z,54.80
2018-05-02T21:41:14.880Z,55.10
2018-05-02T21:43:43.001Z,55.20
2018-05-02T21:46:10.678Z,55.30
2018-05-02T21:48:38.303Z,55.40
2018-05-02T21:51:06.758Z,55.80
2018-05-02T21:53:34.475Z,55.90
2018-05-02T21:56:02.327Z,56.00
2018-05-02T21:58:30.885Z,56.00
2018-05-02T22:00:58.577Z,56.00
2018-05-02T22:03:27.020Z,56.60
2018-05-02T22:05:54.685Z,56.60
2018-05-02T22:08:22.342Z,56.90
2018-05-02T22:10:50.230Z,57.20
2018-05-02T22:13:17.843Z,57.10
2018-05-02T22:15:45.434Z,57.20
2018-05-02T22:18:13.234Z,57.20
2018-05-02T22:20:40.836Z,57.30
2018-05-02T22:23:08.423Z,57.40
2018-05-02T22:25:35.985Z,57.30
2018-05-02T22:28:04.016Z,57.30
2018-05-02T22:30:31.624Z,57.30
2018-05-02T22:32:59.226Z,57.50
2018-05-02T22:35:26.857Z,57.40
2018-05-02T22:37:54.463Z,57.40
2018-05-02T22:40:22.092Z,57.30
2018-05-02T22:42:49.671Z,57.30
2018-05-02T22:45:17.299Z,57.50
2018-05-02T22:47:44.888Z,57.60
2018-05-02T22:50:12.443Z,57.40
2018-05-02T22:52:40.134Z,57.20
2018-05-02T22:55:07.788Z,57.10
2018-05-02T22:57:35.377Z,56.80
2018-05-02T23:00:02.950Z,56.90
2018-05-02T23:02:30.626Z,56.80
2018-05-02T23:04:58.178Z,56.70
2018-05-02T23:07:26.869Z,56.40
2018-05-02T23:09:54.459Z,56.30
2018-05-02T23:12:22.840Z,56.30
2018-05-02T23:14:51.334Z,56.30
2018-05-02T23:17:18.881Z,56.30
2018-05-02T23:19:46.524Z,56.30
2018-05-02T23:22:14.942Z,56.10
2018-05-02T23:24:42.509Z,56.10
2018-05-02T23:27:10.163Z,56.20
2018-05-02T23:29:37.848Z,56.20
2018-05-02T23:32:05.589Z,56.10
2018-05-02T23:34:33.287Z,56.30
2018-05-02T23:37:00.902Z,56.50
2018-05-02T23:39:28.601Z,56.30
2018-05-02T23:41:56.150Z,56.50
2018-05-02T23:44:23.820Z,56.60
2018-05-02T23:46:51.503Z,56.70
2018-05-02T23:49:19.317Z,56.70
2018-05-02T23:51:46.925Z,56.50
2018-05-02T23:54:14.590Z,56.90
2018-05-02T23:56:42.237Z,56.60
2018-05-02T23:59:09.939Z,56.40
